Ora Direzione Vento Velocita' Vento Media Vento Raffica Max. Temperatura Wind Chill Pioggia Pressione
08:42:41.00 °(N)3.6 Kts3.06 Kts4.8 Kts18.1 °C18.75 °C0.0 mm1025.3 Hpa
08:20:49.030 °(NNE)3.3 Kts2.93 Kts4.6 Kts17.8 °C18.49 °C0.0 mm1025.8 Hpa
08:01:07.044 °(NE)3.4 Kts3.63 Kts4.6 Kts17.5 °C18.1 °C0.0 mm1024.7 Hpa
07:41:32.044 °(NE)3.0 Kts2.76 Kts4.6 Kts17.7 °C18.46 °C0.0 mm1023.7 Hpa
07:22:02.045 °(NE)0.0 Kts0.0 Kts4.6 Kts17.8 °C24.18 °C0.0 mm1023.5 Hpa
07:02:20.037 °(NE)0.0 Kts0.0 Kts4.6 Kts18.0 °C24.3 °C0.0 mm1023.1 Hpa
06:42:37.043 °(NE)0.0 Kts0.0 Kts4.6 Kts18.0 °C24.3 °C0.0 mm1023.1 Hpa
06:20:45.045 °(NE)0.0 Kts0.0 Kts4.6 Kts18.0 °C24.3 °C0.0 mm1023.5 Hpa
06:00:59.045 °(NE)2.0 Kts2.63 Kts4.6 Kts18.1 °C19.25 °C0.0 mm1023.1 Hpa
05:41:16.032 °(NNE)2.7 Kts2.16 Kts4.4 Kts18.2 °C19.11 °C0.0 mm1022.4 Hpa
05:21:26.013 °(NNE)2.6 Kts3.36 Kts4.4 Kts18.0 °C18.89 °C0.0 mm1023.5 Hpa
05:01:47.025 °(NNE)3.0 Kts3.36 Kts4.4 Kts18.0 °C18.8 °C0.0 mm1024.2 Hpa
04:42:05.025 °(NNE)3.1 Kts2.9 Kts4.2 Kts17.8 °C18.57 °C0.0 mm1024.2 Hpa
04:22:21.024 °(NNE)0.0 Kts0.0 Kts4.1 Kts18.1 °C24.36 °C0.0 mm1025.2 Hpa
04:00:24.085 °(E)0.0 Kts0.0 Kts4.1 Kts18.2 °C24.43 °C0.0 mm1024.0 Hpa
03:40:38.086 °(E)0.0 Kts0.0 Kts4.1 Kts18.2 °C24.43 °C0.0 mm1023.5 Hpa
03:21:25.092 °(E)3.0 Kts3.23 Kts4.1 Kts18.3 °C19.14 °C0.0 mm1023.5 Hpa
03:02:16.089 °(E)2.8 Kts2.56 Kts4.1 Kts18.5 °C19.42 °C0.0 mm1025.2 Hpa
02:41:10.088 °(E)2.1 Kts2.1 Kts4.1 Kts18.6 °C19.77 °C0.0 mm1024.7 Hpa
02:22:08.095 °(E)1.3 Kts1.63 Kts4.1 Kts19.0 °C20.6 °C0.0 mm1025.8 Hpa